sensor_id;sensor_type;location;lat;lon;timestamp;temperature;humidity
21787;DHT22;11055;50.870;4.316;2022-09-28T00:02:07;10.90;99.90
21787;DHT22;11055;50.870;4.316;2022-09-28T00:04:32;10.70;99.90
21787;DHT22;11055;50.870;4.316;2022-09-28T00:06:59;10.70;99.90
21787;DHT22;11055;50.870;4.316;2022-09-28T00:09:24;10.60;99.90
21787;DHT22;11055;50.870;4.316;2022-09-28T00:11:50;10.50;99.90
21787;DHT22;11055;50.870;4.316;2022-09-28T00:14:16;10.50;99.90
21787;DHT22;11055;50.870;4.316;2022-09-28T00:16:42;10.60;99.90
21787;DHT22;11055;50.870;4.316;2022-09-28T00:19:09;10.80;99.90
21787;DHT22;11055;50.870;4.316;2022-09-28T00:21:36;11.00;99.90
21787;DHT22;11055;50.870;4.316;2022-09-28T00:24:02;11.10;99.90
21787;DHT22;11055;50.870;4.316;2022-09-28T00:29:06;11.30;99.90
21787;DHT22;11055;50.870;4.316;2022-09-28T00:31:32;11.20;99.90
21787;DHT22;11055;50.870;4.316;2022-09-28T00:33:58;11.40;99.90
21787;DHT22;11055;50.870;4.316;2022-09-28T00:36:25;11.20;99.90
21787;DHT22;11055;50.870;4.316;2022-09-28T00:38:53;11.00;99.90
21787;DHT22;11055;50.870;4.316;2022-09-28T00:41:19;11.00;99.90
21787;DHT22;11055;50.870;4.316;2022-09-28T00:43:45;11.10;99.90
21787;DHT22;11055;50.870;4.316;2022-09-28T00:46:12;11.30;99.90
21787;DHT22;11055;50.870;4.316;2022-09-28T00:48:41;11.40;99.90
21787;DHT22;11055;50.870;4.316;2022-09-28T00:51:10;11.50;99.90
21787;DHT22;11055;50.870;4.316;2022-09-28T00:53:36;11.70;99.90
21787;DHT22;11055;50.870;4.316;2022-09-28T00:56:04;12.00;99.90
21787;DHT22;11055;50.870;4.316;2022-09-28T00:58:32;11.80;99.90
21787;DHT22;11055;50.870;4.316;2022-09-28T01:00:59;11.40;99.90
21787;DHT22;11055;50.870;4.316;2022-09-28T01:03:25;11.00;99.90
21787;DHT22;11055;50.870;4.316;2022-09-28T01:05:51;10.80;99.90
21787;DHT22;11055;50.870;4.316;2022-09-28T01:08:18;10.70;99.90
21787;DHT22;11055;50.870;4.316;2022-09-28T01:10:45;10.60;99.90
21787;DHT22;11055;50.870;4.316;2022-09-28T01:13:11;10.40;99.90
21787;DHT22;11055;50.870;4.316;2022-09-28T01:15:58;10.40;99.90
21787;DHT22;11055;50.870;4.316;2022-09-28T01:18:29;10.50;99.90
21787;DHT22;11055;50.870;4.316;2022-09-28T01:20:59;10.40;99.90
21787;DHT22;11055;50.870;4.316;2022-09-28T01:25:57;10.10;99.90
21787;DHT22;11055;50.870;4.316;2022-09-28T01:28:27;10.00;99.90
21787;DHT22;11055;50.870;4.316;2022-09-28T01:33:22;9.90;99.90
21787;DHT22;11055;50.870;4.316;2022-09-28T01:35:55;9.90;99.90
21787;DHT22;11055;50.870;4.316;2022-09-28T01:38:22;9.80;99.90
21787;DHT22;11055;50.870;4.316;2022-09-28T01:40:49;9.80;99.90
21787;DHT22;11055;50.870;4.316;2022-09-28T01:43:16;9.80;99.90
21787;DHT22;11055;50.870;4.316;2022-09-28T01:45:45;9.80;99.90
21787;DHT22;11055;50.870;4.316;2022-09-28T01:48:12;9.90;99.90
21787;DHT22;11055;50.870;4.316;2022-09-28T01:50:40;10.20;99.90
21787;DHT22;11055;50.870;4.316;2022-09-28T01:53:11;10.40;99.90
21787;DHT22;11055;50.870;4.316;2022-09-28T01:55:40;10.50;99.90
21787;DHT22;11055;50.870;4.316;2022-09-28T01:58:09;10.60;99.90
21787;DHT22;11055;50.870;4.316;2022-09-28T02:00:37;10.90;99.90
21787;DHT22;11055;50.870;4.316;2022-09-28T02:03:07;10.90;99.90
21787;DHT22;11055;50.870;4.316;2022-09-28T02:05:38;10.90;99.90
21787;DHT22;11055;50.870;4.316;2022-09-28T02:08:06;11.00;99.90
21787;DHT22;11055;50.870;4.316;2022-09-28T02:10:33;11.20;99.90
21787;DHT22;11055;50.870;4.316;2022-09-28T02:13:02;11.30;99.90
21787;DHT22;11055;50.870;4.316;2022-09-28T02:17:54;10.40;99.90
21787;DHT22;11055;50.870;4.316;2022-09-28T02:20:20;10.20;99.90
21787;DHT22;11055;50.870;4.316;2022-09-28T02:22:53;10.00;99.90
21787;DHT22;11055;50.870;4.316;2022-09-28T02:27:59;9.90;99.90
21787;DHT22;11055;50.870;4.316;2022-09-28T02:30:24;9.80;99.90
21787;DHT22;11055;50.870;4.316;2022-09-28T02:32:51;9.80;99.90
21787;DHT22;11055;50.870;4.316;2022-09-28T02:35:18;9.70;99.90
21787;DHT22;11055;50.870;4.316;2022-09-28T02:37:44;9.70;99.90
21787;DHT22;11055;50.870;4.316;2022-09-28T02:40:17;9.50;99.90
21787;DHT22;11055;50.870;4.316;2022-09-28T02:48:01;9.50;99.90
21787;DHT22;11055;50.870;4.316;2022-09-28T02:55:53;9.70;99.90
21787;DHT22;11055;50.870;4.316;2022-09-28T02:58:45;9.70;99.90
21787;DHT22;11055;50.870;4.316;2022-09-28T03:04:25;9.80;99.90
21787;DHT22;11055;50.870;4.316;2022-09-28T03:06:32;9.70;99.90
21787;DHT22;11055;50.870;4.316;2022-09-28T03:09:04;9.70;99.90
21787;DHT22;11055;50.870;4.316;2022-09-28T03:11:44;9.80;99.90
21787;DHT22;11055;50.870;4.316;2022-09-28T03:14:11;9.90;99.90
21787;DHT22;11055;50.870;4.316;2022-09-28T03:16:41;10.00;99.90
21787;DHT22;11055;50.870;4.316;2022-09-28T03:19:07;10.10;99.90
21787;DHT22;11055;50.870;4.316;2022-09-28T03:21:32;10.40;99.90
21787;DHT22;11055;50.870;4.316;2022-09-28T03:23:58;10.50;99.90
21787;DHT22;11055;50.870;4.316;2022-09-28T03:26:23;10.60;99.90
21787;DHT22;11055;50.870;4.316;2022-09-28T03:28:49;10.40;99.90
21787;DHT22;11055;50.870;4.316;2022-09-28T03:31:14;10.00;99.90
21787;DHT22;11055;50.870;4.316;2022-09-28T03:33:40;9.70;99.90
21787;DHT22;11055;50.870;4.316;2022-09-28T03:36:05;9.60;99.90
21787;DHT22;11055;50.870;4.316;2022-09-28T03:38:32;9.50;99.90
21787;DHT22;11055;50.870;4.316;2022-09-28T03:40:58;9.40;99.90
21787;DHT22;11055;50.870;4.316;2022-09-28T03:43:25;9.30;99.90
21787;DHT22;11055;50.870;4.316;2022-09-28T03:45:54;9.30;99.90
21787;DHT22;11055;50.870;4.316;2022-09-28T03:48:24;9.20;99.90
21787;DHT22;11055;50.870;4.316;2022-09-28T03:50:53;9.30;99.90
21787;DHT22;11055;50.870;4.316;2022-09-28T03:53:19;9.30;99.90
21787;DHT22;11055;50.870;4.316;2022-09-28T03:55:45;9.20;99.90
21787;DHT22;11055;50.870;4.316;2022-09-28T03:58:10;9.30;99.90
21787;DHT22;11055;50.870;4.316;2022-09-28T04:00:36;9.20;99.90
21787;DHT22;11055;50.870;4.316;2022-09-28T04:03:02;9.20;99.90
21787;DHT22;11055;50.870;4.316;2022-09-28T04:05:28;9.20;99.90
21787;DHT22;11055;50.870;4.316;2022-09-28T04:07:53;9.20;99.90
21787;DHT22;11055;50.870;4.316;2022-09-28T04:10:22;9.10;99.90
21787;DHT22;11055;50.870;4.316;2022-09-28T04:12:48;9.10;99.90
21787;DHT22;11055;50.870;4.316;2022-09-28T04:15:15;9.10;99.90
21787;DHT22;11055;50.870;4.316;2022-09-28T04:17:40;9.20;99.90
21787;DHT22;11055;50.870;4.316;2022-09-28T04:20:06;9.20;99.90
21787;DHT22;11055;50.870;4.316;2022-09-28T04:22:32;9.20;99.90
21787;DHT22;11055;50.870;4.316;2022-09-28T04:24:58;9.20;99.90
21787;DHT22;11055;50.870;4.316;2022-09-28T04:27:23;9.30;99.90
21787;DHT22;11055;50.870;4.316;2022-09-28T04:30:08;9.20;99.90
21787;DHT22;11055;50.870;4.316;2022-09-28T04:32:33;9.10;99.90
21787;DHT22;11055;50.870;4.316;2022-09-28T04:34:59;9.10;99.90
21787;DHT22;11055;50.870;4.316;2022-09-28T04:37:24;9.10;99.90
21787;DHT22;11055;50.870;4.316;2022-09-28T04:39:50;9.20;99.90
21787;DHT22;11055;50.870;4.316;2022-09-28T04:42:15;9.20;99.90
21787;DHT22;11055;50.870;4.316;2022-09-28T04:44:41;9.00;99.90
21787;DHT22;11055;50.870;4.316;2022-09-28T04:47:06;9.00;99.90
21787;DHT22;11055;50.870;4.316;2022-09-28T04:49:32;9.00;99.90
21787;DHT22;11055;50.870;4.316;2022-09-28T04:51:59;8.90;99.90
21787;DHT22;11055;50.870;4.316;2022-09-28T04:54:25;8.90;99.90
21787;DHT22;11055;50.870;4.316;2022-09-28T04:56:51;8.90;99.90
21787;DHT22;11055;50.870;4.316;2022-09-28T04:59:17;8.90;99.90
21787;DHT22;11055;50.870;4.316;2022-09-28T05:01:43;9.00;99.90
21787;DHT22;11055;50.870;4.316;2022-09-28T05:04:08;9.00;99.90
21787;DHT22;11055;50.870;4.316;2022-09-28T05:06:34;9.00;99.90
21787;DHT22;11055;50.870;4.316;2022-09-28T05:08:59;9.00;99.90
21787;DHT22;11055;50.870;4.316;2022-09-28T05:11:25;9.00;99.90
21787;DHT22;11055;50.870;4.316;2022-09-28T05:13:50;9.10;99.90
21787;DHT22;11055;50.870;4.316;2022-09-28T05:16:16;9.10;99.90
21787;DHT22;11055;50.870;4.316;2022-09-28T05:18:42;9.10;99.90
21787;DHT22;11055;50.870;4.316;2022-09-28T05:21:11;9.00;99.90
21787;DHT22;11055;50.870;4.316;2022-09-28T05:23:37;8.90;99.90
21787;DHT22;11055;50.870;4.316;2022-09-28T05:26:03;8.90;99.90
21787;DHT22;11055;50.870;4.316;2022-09-28T05:28:30;8.90;99.90
21787;DHT22;11055;50.870;4.316;2022-09-28T05:30:59;8.90;99.90
21787;DHT22;11055;50.870;4.316;2022-09-28T05:33:25;9.00;99.90
21787;DHT22;11055;50.870;4.316;2022-09-28T05:35:51;9.10;99.90
21787;DHT22;11055;50.870;4.316;2022-09-28T05:38:16;9.10;99.90
21787;DHT22;11055;50.870;4.316;2022-09-28T05:40:42;9.20;99.90
21787;DHT22;11055;50.870;4.316;2022-09-28T05:43:07;9.30;99.90
21787;DHT22;11055;50.870;4.316;2022-09-28T05:45:33;9.20;99.90
21787;DHT22;11055;50.870;4.316;2022-09-28T05:47:58;9.30;99.90
21787;DHT22;11055;50.870;4.316;2022-09-28T05:50:24;9.30;99.90
21787;DHT22;11055;50.870;4.316;2022-09-28T05:52:57;9.40;99.90
21787;DHT22;11055;50.870;4.316;2022-09-28T05:55:22;9.70;99.90
21787;DHT22;11055;50.870;4.316;2022-09-28T05:57:48;9.90;99.90
21787;DHT22;11055;50.870;4.316;2022-09-28T06:00:13;10.10;99.90
21787;DHT22;11055;50.870;4.316;2022-09-28T06:02:39;10.00;99.90
21787;DHT22;11055;50.870;4.316;2022-09-28T06:05:04;9.90;99.90
21787;DHT22;11055;50.870;4.316;2022-09-28T06:07:30;9.60;99.90
21787;DHT22;11055;50.870;4.316;2022-09-28T06:09:55;9.60;99.90
21787;DHT22;11055;50.870;4.316;2022-09-28T06:12:21;9.50;99.90
21787;DHT22;11055;50.870;4.316;2022-09-28T06:14:47;9.50;99.90
21787;DHT22;11055;50.870;4.316;2022-09-28T06:17:13;9.60;99.90
21787;DHT22;11055;50.870;4.316;2022-09-28T06:19:38;9.50;99.90
21787;DHT22;11055;50.870;4.316;2022-09-28T06:22:04;9.40;99.90
21787;DHT22;11055;50.870;4.316;2022-09-28T06:24:30;9.40;99.90
21787;DHT22;11055;50.870;4.316;2022-09-28T06:26:55;9.40;99.90
21787;DHT22;11055;50.870;4.316;2022-09-28T06:29:21;9.40;99.90
21787;DHT22;11055;50.870;4.316;2022-09-28T06:31:46;9.40;99.90
21787;DHT22;11055;50.870;4.316;2022-09-28T06:34:12;9.40;99.90
21787;DHT22;11055;50.870;4.316;2022-09-28T06:36:38;9.40;99.90
21787;DHT22;11055;50.870;4.316;2022-09-28T06:39:03;9.40;99.90
21787;DHT22;11055;50.870;4.316;2022-09-28T06:41:29;9.40;99.90
21787;DHT22;11055;50.870;4.316;2022-09-28T06:43:54;9.40;99.90
21787;DHT22;11055;50.870;4.316;2022-09-28T06:46:20;9.40;99.90
21787;DHT22;11055;50.870;4.316;2022-09-28T06:48:46;9.30;99.90
21787;DHT22;11055;50.870;4.316;2022-09-28T06:51:12;9.30;99.90
21787;DHT22;11055;50.870;4.316;2022-09-28T06:53:37;9.20;99.90
21787;DHT22;11055;50.870;4.316;2022-09-28T06:56:03;9.20;99.90
21787;DHT22;11055;50.870;4.316;2022-09-28T06:58:29;9.10;99.90
21787;DHT22;11055;50.870;4.316;2022-09-28T07:00:55;9.30;99.90
21787;DHT22;11055;50.870;4.316;2022-09-28T07:03:24;9.40;99.90
21787;DHT22;11055;50.870;4.316;2022-09-28T07:05:51;9.30;99.90
21787;DHT22;11055;50.870;4.316;2022-09-28T07:08:18;9.40;99.90
21787;DHT22;11055;50.870;4.316;2022-09-28T07:10:45;9.30;99.90
21787;DHT22;11055;50.870;4.316;2022-09-28T07:13:11;9.30;99.90
21787;DHT22;11055;50.870;4.316;2022-09-28T07:15:38;9.30;99.90
21787;DHT22;11055;50.870;4.316;2022-09-28T07:18:04;9.30;99.90
21787;DHT22;11055;50.870;4.316;2022-09-28T07:20:31;9.40;99.90
21787;DHT22;11055;50.870;4.316;2022-09-28T07:22:58;9.40;99.90
21787;DHT22;11055;50.870;4.316;2022-09-28T07:25:24;9.40;99.90
21787;DHT22;11055;50.870;4.316;2022-09-28T07:27:50;9.50;99.90
21787;DHT22;11055;50.870;4.316;2022-09-28T07:30:20;9.60;99.90
21787;DHT22;11055;50.870;4.316;2022-09-28T07:32:45;9.60;99.90
21787;DHT22;11055;50.870;4.316;2022-09-28T07:35:12;9.60;99.90
21787;DHT22;11055;50.870;4.316;2022-09-28T07:37:38;9.60;99.90
21787;DHT22;11055;50.870;4.316;2022-09-28T07:40:04;9.70;99.90
21787;DHT22;11055;50.870;4.316;2022-09-28T07:42:48;9.80;99.90
21787;DHT22;11055;50.870;4.316;2022-09-28T07:45:14;9.90;99.90
21787;DHT22;11055;50.870;4.316;2022-09-28T07:47:40;10.00;99.90
21787;DHT22;11055;50.870;4.316;2022-09-28T07:50:06;10.10;99.90
21787;DHT22;11055;50.870;4.316;2022-09-28T07:52:32;10.10;99.90
21787;DHT22;11055;50.870;4.316;2022-09-28T07:55:00;10.20;99.90
21787;DHT22;11055;50.870;4.316;2022-09-28T07:57:26;10.10;99.90
21787;DHT22;11055;50.870;4.316;2022-09-28T07:59:52;10.10;99.90
21787;DHT22;11055;50.870;4.316;2022-09-28T08:02:18;10.10;99.90
21787;DHT22;11055;50.870;4.316;2022-09-28T08:04:45;10.20;99.90
21787;DHT22;11055;50.870;4.316;2022-09-28T08:07:11;10.20;99.90
21787;DHT22;11055;50.870;4.316;2022-09-28T08:09:37;10.20;99.90
21787;DHT22;11055;50.870;4.316;2022-09-28T08:12:03;10.10;99.90
21787;DHT22;11055;50.870;4.316;2022-09-28T08:14:29;10.00;99.90
21787;DHT22;11055;50.870;4.316;2022-09-28T08:16:58;10.00;99.90
21787;DHT22;11055;50.870;4.316;2022-09-28T08:19:23;10.10;99.90
21787;DHT22;11055;50.870;4.316;2022-09-28T08:21:49;10.20;99.90
21787;DHT22;11055;50.870;4.316;2022-09-28T08:24:15;10.20;99.90
21787;DHT22;11055;50.870;4.316;2022-09-28T08:26:42;10.20;99.90
21787;DHT22;11055;50.870;4.316;2022-09-28T08:29:07;10.30;99.90
21787;DHT22;11055;50.870;4.316;2022-09-28T08:31:33;10.40;99.90
21787;DHT22;11055;50.870;4.316;2022-09-28T08:33:59;10.30;99.90
21787;DHT22;11055;50.870;4.316;2022-09-28T08:36:24;10.30;99.90
21787;DHT22;11055;50.870;4.316;2022-09-28T08:38:50;10.40;99.90
21787;DHT22;11055;50.870;4.316;2022-09-28T08:41:39;10.40;99.90
21787;DHT22;11055;50.870;4.316;2022-09-28T08:44:18;10.50;99.90
21787;DHT22;11055;50.870;4.316;2022-09-28T08:46:54;10.60;99.90
21787;DHT22;11055;50.870;4.316;2022-09-28T08:49:23;10.60;99.90
21787;DHT22;11055;50.870;4.316;2022-09-28T08:52:10;10.70;99.90
21787;DHT22;11055;50.870;4.316;2022-09-28T08:57:10;10.80;99.90
21787;DHT22;11055;50.870;4.316;2022-09-28T09:02:08;11.00;99.90
21787;DHT22;11055;50.870;4.316;2022-09-28T09:04:36;11.10;99.90
21787;DHT22;11055;50.870;4.316;2022-09-28T09:12:34;11.10;99.90
21787;DHT22;11055;50.870;4.316;2022-09-28T09:20:10;11.20;99.90
21787;DHT22;11055;50.870;4.316;2022-09-28T09:22:45;11.30;99.90
21787;DHT22;11055;50.870;4.316;2022-09-28T09:25:26;11.40;99.90
21787;DHT22;11055;50.870;4.316;2022-09-28T09:30:50;11.80;99.90
21787;DHT22;11055;50.870;4.316;2022-09-28T09:38:40;12.10;99.90
21787;DHT22;11055;50.870;4.316;2022-09-28T09:46:45;12.10;99.90
21787;DHT22;11055;50.870;4.316;2022-09-28T09:49:17;12.20;99.90
21787;DHT22;11055;50.870;4.316;2022-09-28T09:51:58;12.20;99.90
21787;DHT22;11055;50.870;4.316;2022-09-28T09:54:34;12.20;99.90
21787;DHT22;11055;50.870;4.316;2022-09-28T09:57:03;12.30;99.90
21787;DHT22;11055;50.870;4.316;2022-09-28T09:59:31;12.40;99.90
21787;DHT22;11055;50.870;4.316;2022-09-28T10:02:02;12.40;99.90
21787;DHT22;11055;50.870;4.316;2022-09-28T10:04:29;12.40;99.90
21787;DHT22;11055;50.870;4.316;2022-09-28T10:06:57;12.50;99.90
21787;DHT22;11055;50.870;4.316;2022-09-28T10:09:27;12.50;99.90
21787;DHT22;11055;50.870;4.316;2022-09-28T10:11:54;12.50;99.90
21787;DHT22;11055;50.870;4.316;2022-09-28T10:14:23;12.60;99.90
21787;DHT22;11055;50.870;4.316;2022-09-28T10:16:50;12.70;99.90
21787;DHT22;11055;50.870;4.316;2022-09-28T10:19:17;12.80;99.90
21787;DHT22;11055;50.870;4.316;2022-09-28T10:21:44;13.10;99.90
21787;DHT22;11055;50.870;4.316;2022-09-28T10:24:15;13.30;99.90
21787;DHT22;11055;50.870;4.316;2022-09-28T10:26:47;13.40;99.90
21787;DHT22;11055;50.870;4.316;2022-09-28T10:29:14;13.30;99.90
21787;DHT22;11055;50.870;4.316;2022-09-28T10:31:45;13.20;99.90
21787;DHT22;11055;50.870;4.316;2022-09-28T10:34:13;13.20;99.90
21787;DHT22;11055;50.870;4.316;2022-09-28T10:36:51;13.20;99.90
21787;DHT22;11055;50.870;4.316;2022-09-28T10:42:07;13.10;99.90
21787;DHT22;11055;50.870;4.316;2022-09-28T10:44:46;13.10;99.90
21787;DHT22;11055;50.870;4.316;2022-09-28T10:47:13;13.10;99.90
21787;DHT22;11055;50.870;4.316;2022-09-28T10:49:42;13.10;99.90
21787;DHT22;11055;50.870;4.316;2022-09-28T10:54:52;13.50;99.90
21787;DHT22;11055;50.870;4.316;2022-09-28T10:57:29;13.80;99.90
21787;DHT22;11055;50.870;4.316;2022-09-28T10:59:57;13.80;99.90
21787;DHT22;11055;50.870;4.316;2022-09-28T11:02:55;13.60;99.90
21787;DHT22;11055;50.870;4.316;2022-09-28T11:05:21;13.50;99.90
21787;DHT22;11055;50.870;4.316;2022-09-28T11:07:47;13.60;99.90
21787;DHT22;11055;50.870;4.316;2022-09-28T11:10:29;13.70;99.90
21787;DHT22;11055;50.870;4.316;2022-09-28T11:12:55;13.70;99.90
21787;DHT22;11055;50.870;4.316;2022-09-28T11:15:24;13.70;99.90
21787;DHT22;11055;50.870;4.316;2022-09-28T11:17:54;14.00;99.90
21787;DHT22;11055;50.870;4.316;2022-09-28T11:22:49;14.90;99.90
21787;DHT22;11055;50.870;4.316;2022-09-28T11:27:40;16.30;99.90
21787;DHT22;11055;50.870;4.316;2022-09-28T11:30:19;17.10;99.90
21787;DHT22;11055;50.870;4.316;2022-09-28T11:32:45;16.40;99.90
21787;DHT22;11055;50.870;4.316;2022-09-28T11:35:18;16.60;99.90
21787;DHT22;11055;50.870;4.316;2022-09-28T11:38:00;17.30;99.90
21787;DHT22;11055;50.870;4.316;2022-09-28T11:43:34;20.00;99.90
21787;DHT22;11055;50.870;4.316;2022-09-28T11:46:02;20.80;99.90
21787;DHT22;11055;50.870;4.316;2022-09-28T11:48:50;21.30;99.90
21787;DHT22;11055;50.870;4.316;2022-09-28T11:51:18;21.00;99.90
21787;DHT22;11055;50.870;4.316;2022-09-28T11:56:23;19.90;99.90
21787;DHT22;11055;50.870;4.316;2022-09-28T11:58:56;20.00;99.90
21787;DHT22;11055;50.870;4.316;2022-09-28T12:03:50;22.20;98.30
21787;DHT22;11055;50.870;4.316;2022-09-28T12:06:17;22.80;95.40
21787;DHT22;11055;50.870;4.316;2022-09-28T12:08:50;23.60;92.90
21787;DHT22;11055;50.870;4.316;2022-09-28T12:14:03;18.60;99.90
21787;DHT22;11055;50.870;4.316;2022-09-28T12:16:42;17.10;99.90
21787;DHT22;11055;50.870;4.316;2022-09-28T12:19:12;16.50;99.90
21787;DHT22;11055;50.870;4.316;2022-09-28T12:21:47;16.10;99.90
21787;DHT22;11055;50.870;4.316;2022-09-28T12:24:37;15.90;99.90
21787;DHT22;11055;50.870;4.316;2022-09-28T12:27:12;15.70;99.90
21787;DHT22;11055;50.870;4.316;2022-09-28T12:29:40;15.60;99.90
21787;DHT22;11055;50.870;4.316;2022-09-28T12:34:42;16.30;99.90
21787;DHT22;11055;50.870;4.316;2022-09-28T12:37:14;17.00;99.90
21787;DHT22;11055;50.870;4.316;2022-09-28T13:10:17;16.60;99.90
21787;DHT22;11055;50.870;4.316;2022-09-28T13:20:51;16.50;99.90
21787;DHT22;11055;50.870;4.316;2022-09-28T13:23:22;16.40;99.90
21787;DHT22;11055;50.870;4.316;2022-09-28T13:26:33;16.40;99.90
21787;DHT22;11055;50.870;4.316;2022-09-28T13:28:38;16.60;99.90
21787;DHT22;11055;50.870;4.316;2022-09-28T13:31:04;17.40;99.90
21787;DHT22;11055;50.870;4.316;2022-09-28T13:33:32;18.40;99.90
21787;DHT22;11055;50.870;4.316;2022-09-28T13:36:00;20.20;98.20
21787;DHT22;11055;50.870;4.316;2022-09-28T13:38:28;19.00;99.90
21787;DHT22;11055;50.870;4.316;2022-09-28T13:43:33;17.70;99.90
21787;DHT22;11055;50.870;4.316;2022-09-28T13:46:01;17.00;99.90
21787;DHT22;11055;50.870;4.316;2022-09-28T13:48:49;16.70;99.90
21787;DHT22;11055;50.870;4.316;2022-09-28T13:53:57;16.00;99.90
21787;DHT22;11055;50.870;4.316;2022-09-28T13:56:29;17.60;99.90
21787;DHT22;11055;50.870;4.316;2022-09-28T14:01:36;22.30;98.50
21787;DHT22;11055;50.870;4.316;2022-09-28T14:06:43;18.30;99.90
21787;DHT22;11055;50.870;4.316;2022-09-28T14:11:53;16.00;99.90
21787;DHT22;11055;50.870;4.316;2022-09-28T14:19:37;15.50;99.90
21787;DHT22;11055;50.870;4.316;2022-09-28T14:29:41;15.70;99.90
21787;DHT22;11055;50.870;4.316;2022-09-28T14:36:58;15.30;99.90
21787;DHT22;11055;50.870;4.316;2022-09-28T14:39:43;15.10;99.90
21787;DHT22;11055;50.870;4.316;2022-09-28T14:42:28;14.90;99.90
21787;DHT22;11055;50.870;4.316;2022-09-28T14:47:50;15.00;99.90
21787;DHT22;11055;50.870;4.316;2022-09-28T14:50:28;15.20;99.90
21787;DHT22;11055;50.870;4.316;2022-09-28T14:53:03;15.10;99.90
21787;DHT22;11055;50.870;4.316;2022-09-28T14:55:33;15.00;99.90
21787;DHT22;11055;50.870;4.316;2022-09-28T14:58:03;15.00;99.90
21787;DHT22;11055;50.870;4.316;2022-09-28T15:00:28;14.90;99.90
21787;DHT22;11055;50.870;4.316;2022-09-28T15:02:59;14.70;99.90
21787;DHT22;11055;50.870;4.316;2022-09-28T15:05:27;14.80;99.90
21787;DHT22;11055;50.870;4.316;2022-09-28T15:07:53;14.90;99.90
21787;DHT22;11055;50.870;4.316;2022-09-28T15:12:56;15.00;99.90
21787;DHT22;11055;50.870;4.316;2022-09-28T15:15:24;14.90;99.90
21787;DHT22;11055;50.870;4.316;2022-09-28T15:17:52;14.90;99.90
21787;DHT22;11055;50.870;4.316;2022-09-28T15:20:22;14.90;99.90
21787;DHT22;11055;50.870;4.316;2022-09-28T15:22:50;15.00;99.90
21787;DHT22;11055;50.870;4.316;2022-09-28T15:25:18;14.90;99.90
21787;DHT22;11055;50.870;4.316;2022-09-28T15:27:44;14.70;99.90
21787;DHT22;11055;50.870;4.316;2022-09-28T15:30:30;14.60;99.90
21787;DHT22;11055;50.870;4.316;2022-09-28T15:32:56;14.60;99.90
21787;DHT22;11055;50.870;4.316;2022-09-28T15:35:52;14.60;99.90
21787;DHT22;11055;50.870;4.316;2022-09-28T15:38:21;14.40;99.90
21787;DHT22;11055;50.870;4.316;2022-09-28T15:40:47;14.40;99.90
21787;DHT22;11055;50.870;4.316;2022-09-28T15:43:28;14.50;99.90
21787;DHT22;11055;50.870;4.316;2022-09-28T15:48:36;14.70;99.90
21787;DHT22;11055;50.870;4.316;2022-09-28T15:51:05;14.80;99.90
21787;DHT22;11055;50.870;4.316;2022-09-28T15:56:15;15.10;99.90
21787;DHT22;11055;50.870;4.316;2022-09-28T15:58:41;15.00;99.90
21787;DHT22;11055;50.870;4.316;2022-09-28T16:03:41;15.40;99.90
21787;DHT22;11055;50.870;4.316;2022-09-28T16:06:08;15.70;99.90
21787;DHT22;11055;50.870;4.316;2022-09-28T16:13:36;15.30;99.90
21787;DHT22;11055;50.870;4.316;2022-09-28T16:16:10;15.30;99.90
21787;DHT22;11055;50.870;4.316;2022-09-28T16:18:39;15.30;99.90
21787;DHT22;11055;50.870;4.316;2022-09-28T16:23:49;15.10;99.90
21787;DHT22;11055;50.870;4.316;2022-09-28T16:26:16;15.10;99.90
21787;DHT22;11055;50.870;4.316;2022-09-28T16:28:51;15.10;99.90
21787;DHT22;11055;50.870;4.316;2022-09-28T16:33:44;15.00;99.90
21787;DHT22;11055;50.870;4.316;2022-09-28T16:36:13;15.00;99.90
21787;DHT22;11055;50.870;4.316;2022-09-28T16:38:42;14.90;99.90
21787;DHT22;11055;50.870;4.316;2022-09-28T16:41:08;14.80;99.90
21787;DHT22;11055;50.870;4.316;2022-09-28T16:43:33;14.70;99.90
21787;DHT22;11055;50.870;4.316;2022-09-28T16:46:04;14.50;99.90
21787;DHT22;11055;50.870;4.316;2022-09-28T16:48:30;14.30;99.90
21787;DHT22;11055;50.870;4.316;2022-09-28T16:50:56;14.30;99.90
21787;DHT22;11055;50.870;4.316;2022-09-28T16:53:22;14.20;99.90
21787;DHT22;11055;50.870;4.316;2022-09-28T16:56:06;14.20;99.90
21787;DHT22;11055;50.870;4.316;2022-09-28T16:58:32;14.20;99.90
21787;DHT22;11055;50.870;4.316;2022-09-28T17:00:58;14.20;99.90
21787;DHT22;11055;50.870;4.316;2022-09-28T17:03:24;14.10;99.90
21787;DHT22;11055;50.870;4.316;2022-09-28T17:05:50;14.10;99.90
21787;DHT22;11055;50.870;4.316;2022-09-28T17:08:17;14.20;99.90
21787;DHT22;11055;50.870;4.316;2022-09-28T17:13:08;14.20;99.90
21787;DHT22;11055;50.870;4.316;2022-09-28T17:15:39;14.10;99.90
21787;DHT22;11055;50.870;4.316;2022-09-28T17:18:05;14.00;99.90
21787;DHT22;11055;50.870;4.316;2022-09-28T17:20:31;13.90;99.90
21787;DHT22;11055;50.870;4.316;2022-09-28T17:22:56;13.70;99.90
21787;DHT22;11055;50.870;4.316;2022-09-28T17:25:22;13.70;99.90
21787;DHT22;11055;50.870;4.316;2022-09-28T17:27:48;13.50;99.90
21787;DHT22;11055;50.870;4.316;2022-09-28T17:30:15;13.40;99.90
21787;DHT22;11055;50.870;4.316;2022-09-28T17:32:41;13.30;99.90
21787;DHT22;11055;50.870;4.316;2022-09-28T17:35:12;13.20;99.90
21787;DHT22;11055;50.870;4.316;2022-09-28T17:37:37;13.20;99.90
21787;DHT22;11055;50.870;4.316;2022-09-28T17:42:42;13.10;99.90
21787;DHT22;11055;50.870;4.316;2022-09-28T17:45:07;13.10;99.90
21787;DHT22;11055;50.870;4.316;2022-09-28T17:47:33;13.00;99.90
21787;DHT22;11055;50.870;4.316;2022-09-28T17:49:58;13.00;99.90
21787;DHT22;11055;50.870;4.316;2022-09-28T17:52:24;13.00;99.90
21787;DHT22;11055;50.870;4.316;2022-09-28T17:54:49;13.00;99.90
21787;DHT22;11055;50.870;4.316;2022-09-28T17:57:15;13.00;99.90
21787;DHT22;11055;50.870;4.316;2022-09-28T17:59:40;12.90;99.90
21787;DHT22;11055;50.870;4.316;2022-09-28T18:02:08;12.90;99.90
21787;DHT22;11055;50.870;4.316;2022-09-28T18:04:34;12.90;99.90
21787;DHT22;11055;50.870;4.316;2022-09-28T18:06:59;12.90;99.90
21787;DHT22;11055;50.870;4.316;2022-09-28T18:09:25;13.00;99.90
21787;DHT22;11055;50.870;4.316;2022-09-28T18:11:50;13.00;99.90
21787;DHT22;11055;50.870;4.316;2022-09-28T18:14:22;13.20;99.90
21787;DHT22;11055;50.870;4.316;2022-09-28T18:16:47;13.30;99.90
21787;DHT22;11055;50.870;4.316;2022-09-28T18:19:13;13.40;99.90
21787;DHT22;11055;50.870;4.316;2022-09-28T18:21:39;13.40;99.90
21787;DHT22;11055;50.870;4.316;2022-09-28T18:24:04;13.40;99.90
21787;DHT22;11055;50.870;4.316;2022-09-28T18:26:30;13.30;99.90
21787;DHT22;11055;50.870;4.316;2022-09-28T18:28:55;13.20;99.90
21787;DHT22;11055;50.870;4.316;2022-09-28T18:31:21;13.10;99.90
21787;DHT22;11055;50.870;4.316;2022-09-28T18:33:46;13.10;99.90
21787;DHT22;11055;50.870;4.316;2022-09-28T18:36:15;13.10;99.90
21787;DHT22;11055;50.870;4.316;2022-09-28T18:38:41;13.00;99.90
21787;DHT22;11055;50.870;4.316;2022-09-28T18:41:13;13.00;99.90